createdAt,value
2023-01-13T00:01:27.220Z,100.00
2023-01-13T00:03:56.491Z,100.00
2023-01-13T00:06:29.215Z,100.00
2023-01-13T00:09:02.007Z,100.00
2023-01-13T00:11:29.340Z,100.00
2023-01-13T00:13:56.967Z,100.00
2023-01-13T00:16:24.439Z,100.00
2023-01-13T00:18:51.964Z,100.00
2023-01-13T00:21:24.862Z,100.00
2023-01-13T00:23:53.943Z,100.00
2023-01-13T00:26:25.325Z,100.00
2023-01-13T00:28:58.114Z,100.00
2023-01-13T00:31:27.428Z,100.00
2023-01-13T00:34:01.536Z,100.00
2023-01-13T00:36:30.769Z,100.00
2023-01-13T00:38:58.644Z,100.00
2023-01-13T00:41:26.951Z,100.00
2023-01-13T00:43:54.617Z,100.00
2023-01-13T00:46:22.781Z,100.00
2023-01-13T00:48:51.479Z,100.00
2023-01-13T00:51:21.375Z,100.00
2023-01-13T00:53:50.954Z,100.00
2023-01-13T00:56:38.599Z,100.00
2023-01-13T00:59:10.310Z,100.00
2023-01-13T01:01:38.177Z,100.00
2023-01-13T01:04:06.228Z,100.00
2023-01-13T01:06:33.801Z,100.00
2023-01-13T01:09:02.068Z,100.00
2023-01-13T01:11:31.931Z,100.00
2023-01-13T01:14:01.682Z,100.00
2023-01-13T01:16:31.327Z,100.00
2023-01-13T01:19:00.247Z,100.00
2023-01-13T01:21:29.148Z,100.00
2023-01-13T01:24:02.190Z,100.00
2023-01-13T01:26:31.568Z,100.00
2023-01-13T01:29:02.052Z,100.00
2023-01-13T01:31:32.171Z,100.00
2023-01-13T01:34:00.952Z,100.00
2023-01-13T01:36:30.119Z,100.00
2023-01-13T01:38:59.943Z,100.00
2023-01-13T01:41:31.647Z,100.00
2023-01-13T01:44:08.103Z,100.00
2023-01-13T01:46:43.975Z,100.00
2023-01-13T01:49:20.529Z,100.00
2023-01-13T01:52:01.268Z,100.00
2023-01-13T01:54:31.750Z,100.00
2023-01-13T01:56:59.666Z,100.00
2023-01-13T01:59:31.484Z,100.00
2023-01-13T02:01:59.518Z,100.00
2023-01-13T02:04:34.433Z,100.00
2023-01-13T02:07:03.231Z,100.00
2023-01-13T02:09:31.890Z,100.00
2023-01-13T02:12:17.706Z,100.00
2023-01-13T02:14:45.796Z,100.00
2023-01-13T02:17:28.964Z,100.00
2023-01-13T02:20:28.499Z,100.00
2023-01-13T02:23:33.380Z,100.00
2023-01-13T02:26:39.658Z,100.00
2023-01-13T02:29:52.379Z,100.00
2023-01-13T02:32:29.065Z,100.00
2023-01-13T02:35:07.035Z,100.00
2023-01-13T02:37:39.585Z,100.00
2023-01-13T02:40:09.930Z,100.00
2023-01-13T02:43:08.262Z,100.00
2023-01-13T02:45:43.599Z,100.00
2023-01-13T02:48:15.154Z,100.00
2023-01-13T02:50:50.561Z,100.00
2023-01-13T02:53:40.725Z,100.00
2023-01-13T02:56:09.969Z,100.00
2023-01-13T02:58:40.904Z,100.00
2023-01-13T03:01:08.612Z,100.00
2023-01-13T03:03:36.660Z,100.00
2023-01-13T03:06:16.286Z,100.00
2023-01-13T03:08:52.411Z,100.00
2023-01-13T03:11:21.835Z,100.00
2023-01-13T03:14:08.584Z,100.00
2023-01-13T03:17:02.360Z,100.00
2023-01-13T03:19:44.457Z,100.00
2023-01-13T03:22:20.490Z,100.00
2023-01-13T03:24:55.122Z,100.00
2023-01-13T03:27:33.350Z,100.00
2023-01-13T03:30:11.731Z,100.00
2023-01-13T03:32:44.259Z,100.00
2023-01-13T03:35:40.420Z,100.00
2023-01-13T03:38:14.676Z,100.00
2023-01-13T03:40:54.511Z,100.00
2023-01-13T03:44:02.400Z,100.00
2023-01-13T03:46:36.303Z,100.00
2023-01-13T03:49:07.320Z,100.00
2023-01-13T03:51:38.631Z,100.00
2023-01-13T03:54:11.421Z,100.00
2023-01-13T03:56:47.891Z,100.00
2023-01-13T03:59:28.234Z,100.00
2023-01-13T04:02:10.856Z,100.00
2023-01-13T04:05:00.497Z,100.00
2023-01-13T04:07:49.434Z,100.00
2023-01-13T04:10:26.227Z,100.00
2023-01-13T04:13:01.453Z,100.00
2023-01-13T04:15:41.151Z,100.00
2023-01-13T04:18:18.201Z,100.00
2023-01-13T04:20:48.917Z,100.00
2023-01-13T04:23:18.104Z,100.00
2023-01-13T04:25:47.046Z,100.00
2023-01-13T04:28:16.001Z,100.00
2023-01-13T04:30:44.871Z,100.00
2023-01-13T04:33:13.855Z,100.00
2023-01-13T04:35:41.834Z,100.00
2023-01-13T04:38:18.349Z,100.00
2023-01-13T04:40:46.849Z,100.00
2023-01-13T04:43:15.738Z,100.00
2023-01-13T04:45:43.878Z,100.00
2023-01-13T04:48:11.731Z,100.00
2023-01-13T04:50:39.815Z,100.00
2023-01-13T04:53:07.420Z,100.00
2023-01-13T04:55:35.401Z,100.00
2023-01-13T04:58:07.620Z,100.00
2023-01-13T05:00:36.188Z,100.00
2023-01-13T05:03:04.035Z,100.00
2023-01-13T05:05:31.612Z,100.00
2023-01-13T05:07:59.429Z,100.00
2023-01-13T05:10:27.997Z,100.00
2023-01-13T05:13:13.765Z,100.00
2023-01-13T05:16:00.946Z,100.00
2023-01-13T05:18:30.774Z,100.00
2023-01-13T05:20:58.534Z,100.00
2023-01-13T05:23:44.505Z,100.00
2023-01-13T05:26:12.270Z,100.00
2023-01-13T05:28:39.849Z,100.00
2023-01-13T05:31:07.528Z,100.00
2023-01-13T05:33:36.011Z,100.00
2023-01-13T05:36:03.920Z,100.00
2023-01-13T05:38:31.474Z,100.00
2023-01-13T05:41:19.067Z,100.00
2023-01-13T05:43:46.653Z,100.00
2023-01-13T05:46:14.983Z,100.00
2023-01-13T05:48:43.417Z,100.00
2023-01-13T05:51:12.410Z,100.00
2023-01-13T05:53:43.171Z,100.00
2023-01-13T05:56:11.209Z,100.00
2023-01-13T05:58:38.786Z,100.00
2023-01-13T06:01:08.818Z,100.00
2023-01-13T06:03:37.860Z,100.00
2023-01-13T06:06:06.106Z,100.00
2023-01-13T06:08:33.674Z,100.00
2023-01-13T06:11:01.664Z,100.00
2023-01-13T06:13:29.242Z,100.00
2023-01-13T06:15:59.724Z,100.00
2023-01-13T06:18:30.012Z,100.00
2023-01-13T06:20:57.950Z,100.00
2023-01-13T06:23:25.420Z,100.00
2023-01-13T06:26:05.806Z,100.00
2023-01-13T06:28:33.498Z,100.00
2023-01-13T06:31:06.283Z,100.00
2023-01-13T06:33:48.053Z,100.00
2023-01-13T06:36:22.331Z,100.00
2023-01-13T06:38:53.379Z,100.00
2023-01-13T06:41:40.396Z,100.00
2023-01-13T06:44:08.190Z,100.00
2023-01-13T06:46:36.238Z,100.00
2023-01-13T06:49:03.978Z,100.00
2023-01-13T06:51:31.488Z,100.00
2023-01-13T06:53:59.193Z,100.00
2023-01-13T06:56:26.766Z,100.00
2023-01-13T06:58:55.645Z,100.00
2023-01-13T07:01:25.784Z,100.00
2023-01-13T07:03:53.370Z,100.00
2023-01-13T07:06:20.817Z,100.00
2023-01-13T07:08:49.041Z,100.00
2023-01-13T07:11:16.646Z,100.00
2023-01-13T07:14:02.394Z,100.00
2023-01-13T07:16:30.321Z,100.00
2023-01-13T07:18:58.022Z,100.00
2023-01-13T07:21:25.616Z,100.00
2023-01-13T07:23:53.514Z,100.00
2023-01-13T07:26:20.985Z,100.00
2023-01-13T07:28:48.661Z,100.00
2023-01-13T07:31:18.985Z,100.00
2023-01-13T07:33:47.154Z,100.00
2023-01-13T07:36:15.114Z,100.00
2023-01-13T07:38:44.658Z,100.00
2023-01-13T07:41:32.446Z,100.00
2023-01-13T07:44:02.834Z,100.00
2023-01-13T07:46:30.903Z,100.00
2023-01-13T07:48:58.374Z,100.00
2023-01-13T07:51:26.180Z,100.00
2023-01-13T07:53:54.487Z,100.00
2023-01-13T07:56:21.918Z,100.00
2023-01-13T07:58:51.181Z,100.00
2023-01-13T08:01:19.331Z,100.00
2023-01-13T08:03:47.148Z,100.00
2023-01-13T08:06:15.043Z,100.00
2023-01-13T08:08:42.602Z,100.00
2023-01-13T08:11:10.449Z,100.00
2023-01-13T08:13:37.898Z,100.00
2023-01-13T08:16:08.513Z,100.00
2023-01-13T08:18:37.306Z,100.00
2023-01-13T08:21:07.932Z,100.00
2023-01-13T08:23:36.943Z,100.00
2023-01-13T08:26:07.384Z,100.00
2023-01-13T08:28:34.986Z,100.00
2023-01-13T08:31:06.275Z,100.00
2023-01-13T08:33:34.237Z,100.00
2023-01-13T08:36:06.985Z,100.00
2023-01-13T08:38:36.254Z,100.00
2023-01-13T08:41:15.855Z,100.00
2023-01-13T08:43:43.811Z,100.00
2023-01-13T08:46:11.744Z,100.00
2023-01-13T08:48:39.735Z,100.00
2023-01-13T08:51:09.476Z,100.00
2023-01-13T08:53:37.018Z,100.00
2023-01-13T08:56:11.677Z,100.00
2023-01-13T08:58:40.737Z,100.00
2023-01-13T09:01:10.117Z,100.00
2023-01-13T09:03:39.150Z,100.00
2023-01-13T09:06:06.942Z,100.00
2023-01-13T09:08:34.705Z,100.00
2023-01-13T09:11:22.230Z,100.00
2023-01-13T09:13:50.489Z,100.00
2023-01-13T09:16:18.477Z,100.00
2023-01-13T09:18:45.954Z,100.00
2023-01-13T09:21:14.690Z,100.00
2023-01-13T09:23:42.239Z,100.00
2023-01-13T09:26:10.941Z,100.00
2023-01-13T09:28:38.779Z,100.00
2023-01-13T09:31:06.334Z,100.00
2023-01-13T09:33:52.400Z,100.00
2023-01-13T09:36:20.352Z,100.00
2023-01-13T09:38:49.696Z,100.00
2023-01-13T09:41:44.719Z,100.00
2023-01-13T09:44:20.127Z,100.00
2023-01-13T09:46:52.563Z,100.00
2023-01-13T09:49:24.088Z,100.00
2023-01-13T09:52:08.031Z,100.00
2023-01-13T09:54:43.053Z,100.00
2023-01-13T09:57:13.100Z,100.00
2023-01-13T09:59:41.808Z,100.00
2023-01-13T10:02:33.548Z,100.00
2023-01-13T10:05:23.907Z,100.00
2023-01-13T10:07:55.851Z,100.00
2023-01-13T10:10:41.815Z,100.00
2023-01-13T10:13:22.716Z,100.00
2023-01-13T10:16:18.973Z,100.00
2023-01-13T10:19:00.797Z,100.00
2023-01-13T10:21:37.624Z,100.00
2023-01-13T10:24:08.269Z,100.00
2023-01-13T10:27:00.494Z,100.00
2023-01-13T10:29:30.920Z,100.00
2023-01-13T10:32:00.567Z,100.00
2023-01-13T10:34:29.107Z,100.00
2023-01-13T10:37:00.605Z,100.00
2023-01-13T10:39:40.148Z,100.00
2023-01-13T10:42:14.066Z,100.00
2023-01-13T10:45:18.569Z,100.00
2023-01-13T10:48:06.258Z,99.80
2023-01-13T10:50:36.767Z,99.17
2023-01-13T10:53:24.431Z,98.54
2023-01-13T10:56:04.408Z,97.30
2023-01-13T10:58:31.863Z,96.77
2023-01-13T11:01:05.678Z,96.24
2023-01-13T11:03:43.110Z,96.18
2023-01-13T11:06:21.126Z,96.25
2023-01-13T11:08:50.913Z,96.10
2023-01-13T11:11:41.800Z,95.62
2023-01-13T11:14:55.684Z,95.82
2023-01-13T11:17:40.368Z,95.41
2023-01-13T11:20:46.786Z,95.24
2023-01-13T11:23:17.573Z,96.00
2023-01-13T11:25:49.145Z,95.40
2023-01-13T11:28:22.802Z,95.36
2023-01-13T11:31:14.651Z,95.54
2023-01-13T11:33:54.450Z,95.87
2023-01-13T11:36:31.801Z,95.21
2023-01-13T11:39:24.625Z,95.29
2023-01-13T11:42:21.125Z,95.04
2023-01-13T11:44:58.635Z,95.29
2023-01-13T11:47:28.046Z,95.23
2023-01-13T11:49:56.356Z,95.29
2023-01-13T11:52:32.095Z,95.92
2023-01-13T11:55:30.050Z,95.64
2023-01-13T11:58:09.588Z,96.11
2023-01-13T12:00:57.503Z,95.88
2023-01-13T12:03:46.243Z,95.57
2023-01-13T12:06:30.867Z,95.29
2023-01-13T12:09:29.497Z,95.34
2023-01-13T12:12:32.247Z,95.86
2023-01-13T12:15:21.355Z,96.25
2023-01-13T12:17:54.818Z,95.62
2023-01-13T12:21:01.033Z,94.90
2023-01-13T12:23:54.037Z,94.12
2023-01-13T12:26:22.684Z,94.47
2023-01-13T12:29:00.429Z,93.68
2023-01-13T12:31:29.880Z,93.98
2023-01-13T12:34:22.444Z,94.74
2023-01-13T12:37:13.563Z,95.18
2023-01-13T12:40:08.066Z,95.35
2023-01-13T12:43:32.367Z,94.53
2023-01-13T12:46:22.937Z,94.33
2023-01-13T12:49:02.373Z,95.46
2023-01-13T12:51:57.107Z,95.62
2023-01-13T12:54:37.429Z,95.90
2023-01-13T12:57:35.286Z,96.31
2023-01-13T13:00:09.538Z,96.20
2023-01-13T13:02:39.306Z,95.79
2023-01-13T13:05:15.737Z,95.72
2023-01-13T13:07:50.192Z,95.75
2023-01-13T13:10:30.101Z,95.60
2023-01-13T13:13:20.697Z,95.48
2023-01-13T13:15:51.915Z,94.75
2023-01-13T13:18:27.073Z,94.50
2023-01-13T13:21:06.119Z,94.66
2023-01-13T13:23:33.474Z,94.58
2023-01-13T13:26:20.206Z,94.47
2023-01-13T13:28:59.719Z,94.55
2023-01-13T13:32:05.598Z,94.30
2023-01-13T13:34:59.355Z,94.57
2023-01-13T13:37:58.103Z,94.55
2023-01-13T13:40:47.289Z,93.88
2023-01-13T13:43:34.888Z,93.51
2023-01-13T13:46:21.029Z,93.10
2023-01-13T13:48:54.317Z,93.25
2023-01-13T13:51:39.151Z,92.86
2023-01-13T13:54:14.512Z,92.95
2023-01-13T13:56:45.164Z,93.39
2023-01-13T13:59:17.101Z,93.97
2023-01-13T14:01:46.597Z,93.98
2023-01-13T14:04:19.957Z,94.14
2023-01-13T14:06:59.710Z,93.93
2023-01-13T14:09:40.530Z,94.21
2023-01-13T14:12:20.979Z,94.79
2023-01-13T14:14:50.019Z,94.50
2023-01-13T14:17:25.475Z,94.27
2023-01-13T14:19:59.241Z,94.57
2023-01-13T14:22:27.151Z,95.28
2023-01-13T14:24:58.059Z,94.68
2023-01-13T14:27:27.890Z,94.46
2023-01-13T14:30:00.061Z,94.34
2023-01-13T14:32:36.817Z,94.47
2023-01-13T14:35:08.154Z,95.00
2023-01-13T14:37:39.792Z,94.97
2023-01-13T14:40:38.190Z,95.26
2023-01-13T14:43:13.410Z,95.29
2023-01-13T14:45:54.808Z,95.79
2023-01-13T14:48:27.061Z,96.24
2023-01-13T14:50:54.852Z,96.29
2023-01-13T14:53:47.120Z,96.77
2023-01-13T14:56:53.883Z,97.17
2023-01-13T15:00:03.999Z,97.61
2023-01-13T15:02:43.294Z,98.16
2023-01-13T15:05:16.922Z,98.46
2023-01-13T15:08:12.304Z,98.86
2023-01-13T15:10:51.166Z,98.95
2023-01-13T15:13:29.271Z,99.03
2023-01-13T15:16:03.539Z,99.02
2023-01-13T15:18:31.419Z,99.26
2023-01-13T15:20:59.178Z,98.89
2023-01-13T15:23:26.761Z,99.07
2023-01-13T15:25:54.518Z,99.01
2023-01-13T15:28:24.589Z,99.23
2023-01-13T15:30:54.067Z,99.43
2023-01-13T15:33:22.538Z,99.72
2023-01-13T15:35:54.171Z,100.00
2023-01-13T15:38:23.662Z,99.89
2023-01-13T15:40:52.440Z,100.00
2023-01-13T15:43:40.316Z,99.82
2023-01-13T15:46:35.563Z,99.92
2023-01-13T15:49:09.944Z,100.00
2023-01-13T15:51:38.903Z,100.00
2023-01-13T15:54:07.975Z,100.00
2023-01-13T15:56:36.747Z,100.00
2023-01-13T15:59:10.690Z,100.00
2023-01-13T16:01:38.193Z,100.00
2023-01-13T16:04:06.597Z,100.00
2023-01-13T16:06:36.082Z,100.00
2023-01-13T16:09:04.638Z,100.00
2023-01-13T16:11:33.064Z,100.00
2023-01-13T16:14:00.467Z,100.00
2023-01-13T16:16:28.738Z,100.00
2023-01-13T16:18:56.602Z,100.00
2023-01-13T16:21:24.582Z,100.00
2023-01-13T16:23:52.790Z,100.00
2023-01-13T16:26:26.655Z,100.00
2023-01-13T16:28:56.118Z,100.00
2023-01-13T16:31:26.019Z,100.00
2023-01-13T16:33:54.107Z,100.00
2023-01-13T16:36:22.213Z,100.00
2023-01-13T16:38:52.550Z,100.00
2023-01-13T16:41:21.661Z,100.00
2023-01-13T16:43:49.131Z,100.00
2023-01-13T16:46:24.590Z,100.00
2023-01-13T16:48:55.372Z,100.00
2023-01-13T16:51:24.750Z,100.00
2023-01-13T16:53:52.275Z,100.00
2023-01-13T16:56:25.654Z,100.00
2023-01-13T16:58:56.357Z,100.00
2023-01-13T17:01:27.692Z,100.00
2023-01-13T17:03:56.239Z,100.00
2023-01-13T17:06:37.388Z,100.00
2023-01-13T17:09:14.518Z,100.00
2023-01-13T17:11:41.993Z,100.00
2023-01-13T17:14:18.899Z,100.00
2023-01-13T17:16:47.735Z,100.00
2023-01-13T17:19:16.277Z,100.00
2023-01-13T17:21:44.220Z,100.00
2023-01-13T17:24:12.476Z,100.00
2023-01-13T17:26:44.140Z,100.00
2023-01-13T17:29:14.799Z,100.00
2023-01-13T17:31:51.729Z,100.00
2023-01-13T17:34:19.701Z,100.00
2023-01-13T17:36:48.305Z,100.00
2023-01-13T17:39:17.698Z,100.00
2023-01-13T17:41:46.055Z,100.00
2023-01-13T17:44:14.913Z,100.00
2023-01-13T17:46:43.202Z,100.00
2023-01-13T17:49:12.453Z,100.00
2023-01-13T17:51:40.668Z,100.00
2023-01-13T17:54:12.295Z,100.00
2023-01-13T17:56:41.622Z,100.00
2023-01-13T17:59:11.675Z,100.00
2023-01-13T18:01:39.616Z,100.00
2023-01-13T18:04:09.533Z,100.00
2023-01-13T18:06:37.165Z,100.00
2023-01-13T18:09:04.716Z,100.00
2023-01-13T18:11:32.528Z,100.00
2023-01-13T18:14:02.903Z,100.00
2023-01-13T18:16:31.944Z,100.00
2023-01-13T18:19:18.890Z,100.00
2023-01-13T18:22:05.869Z,100.00
2023-01-13T18:24:52.405Z,100.00
2023-01-13T18:27:23.870Z,100.00
2023-01-13T18:29:54.364Z,100.00
2023-01-13T18:32:26.533Z,100.00
2023-01-13T18:35:05.000Z,100.00
2023-01-13T18:37:36.056Z,100.00
2023-01-13T18:40:06.532Z,100.00
2023-01-13T18:42:54.037Z,100.00
2023-01-13T18:45:28.332Z,100.00
2023-01-13T18:47:59.263Z,100.00
2023-01-13T18:50:28.288Z,100.00
2023-01-13T18:52:56.653Z,100.00
2023-01-13T18:55:24.964Z,100.00
2023-01-13T18:57:53.634Z,100.00
2023-01-13T19:00:22.243Z,100.00
2023-01-13T19:05:35.852Z,100.00
2023-01-13T19:08:04.420Z,100.00
2023-01-13T19:10:32.606Z,100.00
2023-01-13T19:13:01.708Z,100.00
2023-01-13T19:15:29.723Z,100.00
2023-01-13T19:17:57.288Z,100.00
2023-01-13T19:20:26.057Z,100.00
2023-01-13T19:22:54.315Z,100.00
2023-01-13T19:25:22.034Z,100.00
2023-01-13T19:27:49.834Z,100.00
2023-01-13T19:30:18.144Z,100.00
2023-01-13T19:32:45.940Z,100.00
2023-01-13T19:35:17.453Z,100.00
2023-01-13T19:37:45.744Z,100.00
2023-01-13T19:40:14.494Z,100.00
2023-01-13T19:43:04.900Z,100.00
2023-01-13T19:45:35.165Z,100.00
2023-01-13T19:48:05.326Z,100.00
2023-01-13T19:50:40.442Z,100.00
2023-01-13T19:53:16.444Z,100.00
2023-01-13T19:55:48.575Z,100.00
2023-01-13T19:58:18.937Z,100.00
2023-01-13T20:00:48.385Z,100.00
2023-01-13T20:03:19.321Z,100.00
2023-01-13T20:05:47.852Z,100.00
2023-01-13T20:08:15.338Z,100.00
2023-01-13T20:10:45.377Z,100.00
2023-01-13T20:13:13.385Z,100.00
2023-01-13T20:15:41.297Z,100.00
2023-01-13T20:18:09.623Z,100.00
2023-01-13T20:20:39.754Z,100.00
2023-01-13T20:23:07.396Z,100.00
2023-01-13T20:25:35.453Z,100.00
2023-01-13T20:28:03.197Z,100.00
2023-01-13T20:30:30.857Z,100.00
2023-01-13T20:32:59.080Z,100.00
2023-01-13T20:35:29.650Z,100.00
2023-01-13T20:37:57.337Z,100.00
2023-01-13T20:40:25.880Z,100.00
2023-01-13T20:42:53.737Z,100.00
2023-01-13T20:45:22.600Z,100.00
2023-01-13T20:47:50.344Z,100.00
2023-01-13T20:50:19.536Z,100.00
2023-01-13T20:52:47.929Z,100.00
2023-01-13T20:55:15.952Z,100.00
2023-01-13T20:57:43.671Z,100.00
2023-01-13T21:00:13.619Z,100.00
2023-01-13T21:02:42.000Z,100.00
2023-01-13T21:05:10.184Z,100.00
2023-01-13T21:07:37.705Z,100.00
2023-01-13T21:10:07.925Z,100.00
2023-01-13T21:12:54.353Z,100.00
2023-01-13T21:15:22.819Z,100.00
2023-01-13T21:18:10.305Z,100.00
2023-01-13T21:20:39.229Z,100.00
2023-01-13T21:23:07.779Z,100.00
2023-01-13T21:25:37.370Z,100.00
2023-01-13T21:28:10.270Z,100.00
2023-01-13T21:30:39.124Z,100.00
2023-01-13T21:33:07.019Z,100.00
2023-01-13T21:35:38.389Z,100.00
2023-01-13T21:38:05.897Z,100.00
2023-01-13T21:40:33.697Z,100.00
2023-01-13T21:43:19.860Z,100.00
2023-01-13T21:46:06.514Z,100.00
2023-01-13T21:48:34.170Z,100.00
2023-01-13T21:51:01.990Z,100.00
2023-01-13T21:53:29.456Z,100.00
2023-01-13T21:55:57.011Z,100.00
2023-01-13T21:58:25.259Z,100.00
2023-01-13T22:00:52.849Z,100.00
2023-01-13T22:03:21.035Z,100.00
2023-01-13T22:05:54.629Z,100.00
2023-01-13T22:08:22.378Z,100.00
2023-01-13T22:10:59.392Z,100.00
2023-01-13T22:13:47.738Z,100.00
2023-01-13T22:16:15.965Z,100.00
2023-01-13T22:18:43.798Z,100.00
2023-01-13T22:21:11.634Z,100.00
2023-01-13T22:23:39.291Z,100.00
2023-01-13T22:26:08.633Z,100.00
2023-01-13T22:28:43.362Z,100.00
2023-01-13T22:31:16.570Z,100.00
2023-01-13T22:33:48.060Z,100.00
2023-01-13T22:36:15.920Z,100.00
2023-01-13T22:38:43.492Z,100.00
2023-01-13T22:41:11.128Z,100.00
2023-01-13T22:43:39.194Z,100.00
2023-01-13T22:46:09.605Z,100.00
2023-01-13T22:48:38.322Z,100.00
2023-01-13T22:51:11.380Z,100.00
2023-01-13T22:53:39.515Z,100.00
2023-01-13T22:56:08.052Z,100.00
2023-01-13T22:58:35.513Z,100.00
2023-01-13T23:01:11.479Z,100.00
2023-01-13T23:03:40.140Z,100.00
2023-01-13T23:06:07.877Z,100.00
2023-01-13T23:08:35.892Z,100.00
2023-01-13T23:11:07.005Z,100.00
2023-01-13T23:13:35.314Z,100.00
2023-01-13T23:16:07.174Z,100.00
2023-01-13T23:18:35.475Z,100.00
2023-01-13T23:21:09.967Z,100.00
2023-01-13T23:23:38.425Z,100.00
2023-01-13T23:26:06.554Z,100.00
2023-01-13T23:28:35.813Z,100.00
2023-01-13T23:31:08.511Z,100.00
2023-01-13T23:33:37.698Z,100.00
2023-01-13T23:36:07.673Z,100.00
2023-01-13T23:38:35.176Z,100.00
2023-01-13T23:41:06.394Z,100.00
2023-01-13T23:43:34.856Z,100.00
2023-01-13T23:46:04.063Z,100.00
2023-01-13T23:48:32.899Z,100.00
2023-01-13T23:51:03.586Z,100.00
2023-01-13T23:53:33.627Z,100.00
2023-01-13T23:56:02.966Z,100.00
2023-01-13T23:58:30.820Z,100.00
